Portada
METAR-TAF:

METAR-TAF

Aeroports :

Aeroport Internacional de Xangai-Pudong

Xangai-Pudong, Xina

latitud: 31-07N, longitud: 121-46E, altitud: 4 m

Observació

L'informe es va fer fa 25 minuts, a les 17:00 UTC
Vent 4 kt del Sud
Temperatura 11°C
Humitat 87%
Pressió 1021 hPa
Visibilitat: 6000 m

METAR: ZSPD 211700Z 17002MPS 6000 NSC 11/09 Q1021 NOSIG

Hora: 01:25 (17:25 UTC)

Pronòstic

L'informe es va fer fa 8 hores i 3 minuts, a les 09:22 UTC
Pronòstic vàlid del 21 a les 12 UTC al 22 a les 12 UTC
Vent 8 kt del Sud-Est
Visibilitat: 3500 m
Cel ennuvolat a una alçada de 1100 ft
Cel cobert a una alçada de 3300 ft
pluja, boirina
Evolucionant progressivament
l' 22 a les 04 UTC al 22 a les 06 UTC
Vent 8 kt del Nord

TAF: ZSPD 210922Z 2112/2212 14004MPS 3500 -RA BR BKN011 OVC033 TX11/2206Z TN09/2121Z BECMG 2204/2206 01004MPS

Observacions i pronòstics meteorològics de més de 4000 aeroports (METAR i TAF).

Les estacions disponibles són els punts grocs i vermells al mapa.

Posi el ratolí al punt desitjat per veure el nom de l'estació.

Feu clic per veure les observacions i els pronòstics meteorològics.

Per canviar el mapa: feu clic els botons verds amb una creu de color negre per apropar; al botó verd amb un guió per allunyar la imatge; o en les fletxes verdes per a mapes adjacents.


METAR-TAF: